Time;durP1;ratioP1;P1;durP2;ratioP2;P2;SDS_P1;SDS_P2;PMS_P1;PMS_P2;Temp;Humidity;BMP_temperature;BMP_pressure;BME280_temperature;BME280_humidity;BME280_pressure;Samples;Min_cycle;Max_cycle;Signal;HPM_P1;HPM_P2
2022/12/03 00:02:17;;;;;;;22.58;16.55;;;;;;;7.80;78.09;101380.69;4969166;28;20308;-78
2022/12/03 00:04:44;;;;;;;26.88;16.38;;;;;;;8.37;77.86;101466.88;4963985;28;20508;-78
2022/12/03 00:07:13;;;;;;;22.75;15.55;;;;;;;8.53;78.05;101504.66;4966385;28;20951;-80
2022/12/03 00:09:40;;;;;;;24.17;16.98;;;;;;;7.81;77.74;101382.34;4974688;28;20061;-80
2022/12/03 00:12:07;;;;;;;23.25;16.80;;;;;;;8.39;78.30;101494.09;4964672;28;20153;-79
2022/12/03 00:14:34;;;;;;;29.60;17.08;;;;;;;8.33;78.27;101482.97;4964182;28;20057;-79
2022/12/03 00:17:08;;;;;;;23.95;16.23;;;;;;;8.45;78.66;101505.16;4965646;28;20060;-79
2022/12/03 00:19:35;;;;;;;25.45;18.13;;;;;;;8.41;79.02;101494.88;4963684;28;20073;-77
2022/12/03 00:22:08;;;;;;;31.65;17.45;;;;;;;8.41;79.46;101505.44;4963664;28;20056;-79
2022/12/03 00:24:38;;;;;;;27.85;18.90;;;;;;;8.30;79.10;101491.09;4964199;28;20108;-78
2022/12/03 00:27:05;;;;;;;27.58;19.38;;;;;;;8.03;79.87;101450.56;4961051;28;20046;-80
2022/12/03 00:29:32;;;;;;;26.17;18.35;;;;;;;8.30;79.92;101500.81;4960234;28;20052;-78
2022/12/03 00:32:02;;;;;;;28.58;19.55;;;;;;;8.21;80.52;101496.13;4964803;28;20055;-79
2022/12/03 00:34:31;;;;;;;28.90;20.33;;;;;;;8.24;81.05;101507.34;4959440;28;20054;-78
2022/12/03 00:36:58;;;;;;;28.50;18.73;;;;;;;8.17;81.37;101487.53;4960831;28;20045;-79
2022/12/03 00:39:27;;;;;;;29.88;20.48;;;;;;;7.83;81.63;101433.34;4956205;28;20057;-80
2022/12/03 00:41:54;;;;;;;34.95;18.40;;;;;;;8.23;81.59;101499.50;4961499;28;20127;-79
2022/12/03 00:44:21;;;;;;;24.27;18.08;;;;;;;8.18;81.63;101502.47;4963049;28;20069;-80
2022/12/03 00:46:47;;;;;;;24.52;16.80;;;;;;;8.18;81.96;101499.84;4964266;28;20165;-79
2022/12/03 00:49:14;;;;;;;25.13;18.40;;;;;;;8.07;81.77;101470.56;4965107;28;20278;-78
2022/12/03 00:51:41;;;;;;;26.50;18.13;;;;;;;7.32;81.90;101354.63;4976677;28;20108;-79
2022/12/03 00:54:10;;;;;;;27.83;18.63;;;;;;;8.03;81.91;101472.56;4977434;28;20134;-78
2022/12/03 00:56:37;;;;;;;28.80;18.33;;;;;;;8.12;82.34;101500.22;4972011;28;20045;-79
2022/12/03 00:59:08;;;;;;;25.70;17.65;;;;;;;8.04;82.46;101489.28;4978861;28;20060;-79
2022/12/03 01:01:40;;;;;;;24.65;18.20;;;;;;;7.96;82.46;101478.34;4961576;28;20665;-77
2022/12/03 01:04:06;;;;;;;23.50;17.90;;;;;;;7.95;83.41;101489.88;4982862;28;20301;-78
2022/12/03 01:06:33;;;;;;;23.88;17.90;;;;;;;8.01;83.57;101494.75;4978417;28;20546;-78
2022/12/03 01:09:04;;;;;;;24.33;17.30;;;;;;;7.82;83.70;101464.22;4979821;28;20389;-79
2022/12/03 01:11:36;;;;;;;25.17;18.48;;;;;;;7.97;83.05;101490.63;4978895;28;20048;-79
2022/12/03 01:14:19;;;;;;;24.15;17.48;;;;;;;8.03;83.98;101500.78;4980267;28;20490;-80
2022/12/03 01:16:47;;;;;;;27.35;17.95;;;;;;;8.09;83.57;101503.06;4980076;28;20045;-79
2022/12/03 01:19:15;;;;;;;26.38;17.90;;;;;;;7.93;83.75;101474.09;4994640;28;20053;-81
2022/12/03 01:21:43;;;;;;;24.92;17.80;;;;;;;8.08;83.86;101504.88;4996428;28;20140;-78
2022/12/03 01:24:10;;;;;;;26.10;18.38;;;;;;;7.82;83.53;101461.56;4980054;28;20056;-78
2022/12/03 01:26:37;;;;;;;27.50;19.17;;;;;;;7.88;83.74;101495.53;4976843;28;20053;-78
2022/12/03 01:29:05;;;;;;;26.08;18.90;;;;;;;7.85;84.35;101474.59;4979061;28;20148;-78
2022/12/03 01:34:21;;;;;;;21.92;18.38;;;;;;;7.82;84.41;101466.84;4998764;28;20238;-79
2022/12/03 01:36:51;;;;;;;21.42;17.48;;;;;;;7.66;84.56;101450.25;4980300;28;20049;-79
2022/12/03 01:39:22;;;;;;;24.90;17.13;;;;;;;7.76;84.50;101474.31;4998914;28;20596;-79
2022/12/03 01:41:51;;;;;;;23.13;17.60;;;;;;;7.95;85.22;101488.06;4977777;28;20049;-81
2022/12/03 01:44:31;;;;;;;22.27;17.77;;;;;;;7.82;85.45;101453.66;4978303;28;20893;-81
2022/12/03 01:47:03;;;;;;;28.95;18.05;;;;;;;7.95;85.08;101474.00;4979886;28;20499;-82
2022/12/03 01:49:34;;;;;;;27.23;18.52;;;;;;;7.66;84.80;101427.31;4979180;28;20060;-81
2022/12/03 01:52:01;;;;;;;23.73;17.67;;;;;;;7.70;84.66;101438.56;4978610;28;20053;-81
2022/12/03 01:54:37;;;;;;;26.92;18.30;;;;;;;7.86;84.94;101486.88;4981936;28;20053;-80
2022/12/03 01:57:04;;;;;;;28.42;18.08;;;;;;;7.48;84.94;101428.50;4984012;28;20112;-81
2022/12/03 01:59:37;;;;;;;25.85;17.85;;;;;;;7.82;85.48;101490.66;4995018;28;20061;-83
2022/12/03 02:02:11;;;;;;;23.83;17.43;;;;;;;7.70;85.81;101459.72;4981223;28;20104;-82
2022/12/03 02:04:41;;;;;;;26.48;18.80;;;;;;;7.64;85.17;101449.50;4964419;28;20137;-80
2022/12/03 02:07:16;;;;;;;;;;;;;;;7.85;84.98;101477.22;4960618;28;20461;-81
2022/12/03 02:09:43;;;;;;;24.35;19.02;;;;;;;7.52;85.67;101431.78;4964162;28;20142;-82
2022/12/03 02:12:16;;;;;;;26.77;19.27;;;;;;;7.81;85.82;101466.94;4962540;28;20410;-82
2022/12/03 02:14:43;;;;;;;25.63;17.83;;;;;;;7.37;85.45;101402.75;4961938;28;20057;-82
2022/12/03 02:17:11;;;;;;;27.08;19.45;;;;;;;7.89;85.86;101476.09;4958049;28;20548;-81
2022/12/03 02:19:40;;;;;;;26.30;19.65;;;;;;;7.80;85.33;101458.19;4957036;28;20050;-83
2022/12/03 02:22:15;;;;;;;24.17;18.98;;;;;;;7.99;84.74;101488.75;4959952;28;20326;-82
2022/12/03 02:24:57;;;;;;;25.50;18.85;;;;;;;7.99;85.27;101486.09;4955689;28;20566;-81
2022/12/03 02:27:27;;;;;;;29.05;20.35;;;;;;;7.86;85.21;101454.28;4958470;28;20043;-81
2022/12/03 02:29:53;;;;;;;27.63;18.92;;;;;;;7.99;85.07;101459.66;4957306;28;20053;-80
2022/12/03 02:32:22;;;;;;;26.38;18.90;;;;;;;8.05;84.49;101475.94;4958575;28;20043;-83
2022/12/03 02:34:50;;;;;;;28.60;19.25;;;;;;;7.61;84.57;101404.78;4958544;28;20649;-81
2022/12/03 02:37:26;;;;;;;26.48;19.33;;;;;;;7.74;84.72;101424.19;4960276;28;20776;-80
2022/12/03 02:39:56;;;;;;;29.63;19.85;;;;;;;7.93;84.89;101453.78;4977642;28;20061;-83
2022/12/03 02:42:35;;;;;;;28.63;19.13;;;;;;;7.92;84.77;101453.91;4976852;28;20049;-80
2022/12/03 02:45:12;;;;;;;30.67;20.50;;;;;;;7.72;85.22;101404.97;4982361;28;20050;-81
2022/12/03 02:47:44;;;;;;;36.20;21.08;;;;;;;7.78;85.29;101420.41;4978301;28;20437;-82
2022/12/03 02:50:14;;;;;;;32.97;21.33;;;;;;;8.03;84.33;101453.19;4978703;28;20072;-81
2022/12/03 02:52:44;;;;;;;27.92;21.73;;;;;;;7.81;83.73;101412.28;4979297;28;20300;-80
2022/12/03 02:55:14;;;;;;;35.70;21.95;;;;;;;7.89;84.10;101436.44;4978327;28;20156;-81
2022/12/03 02:57:44;;;;;;;30.17;21.73;;;;;;;7.72;84.45;101410.25;4977623;28;20580;-79
2022/12/03 03:00:18;;;;;;;33.35;21.67;;;;;;;7.63;84.50;101389.69;4982747;28;20050;-79
2022/12/03 03:02:49;;;;;;;35.05;21.67;;;;;;;7.80;84.89;101426.44;4982409;28;20061;-79
2022/12/03 03:05:22;;;;;;;33.00;22.10;;;;;;;7.91;84.49;101446.91;4980410;28;20493;-79
2022/12/03 03:07:50;;;;;;;34.33;20.70;;;;;;;7.86;84.56;101439.28;4982797;28;20958;-80
2022/12/03 03:10:21;;;;;;;36.45;22.50;;;;;;;7.73;84.98;101419.84;4980542;28;20436;-79
2022/12/03 03:12:51;;;;;;;30.55;21.27;;;;;;;7.64;84.64;101412.50;4983116;28;20065;-80
2022/12/03 03:15:18;;;;;;;29.95;21.50;;;;;;;7.90;85.39;101451.34;4985372;28;20471;-81
2022/12/03 03:17:48;;;;;;;35.53;22.05;;;;;;;7.76;85.25;101417.00;4980410;28;20050;-80
2022/12/03 03:20:15;;;;;;;37.30;23.83;;;;;;;7.83;85.11;101422.75;4979832;28;20469;-80
2022/12/03 03:22:45;;;;;;;32.92;22.73;;;;;;;7.84;85.14;101429.72;4979042;28;20050;-80
2022/12/03 03:25:19;;;;;;;31.05;21.70;;;;;;;7.69;85.79;101405.13;4979271;28;20148;-81
2022/12/03 03:27:47;;;;;;;33.38;21.52;;;;;;;7.81;86.26;101430.78;4979627;28;20057;-80
2022/12/03 03:30:14;;;;;;;30.55;22.13;;;;;;;7.84;86.49;101425.31;4980507;28;20804;-79
2022/12/03 03:32:41;;;;;;;28.55;21.40;;;;;;;7.83;86.79;101415.69;4980090;28;20080;-78
2022/12/03 03:35:14;;;;;;;29.20;20.83;;;;;;;7.93;86.64;101424.69;4981446;28;20622;-79
2022/12/03 03:37:43;;;;;;;27.25;20.05;;;;;;;7.53;86.04;101348.94;4985891;28;20080;-80
2022/12/03 03:40:13;;;;;;;29.05;20.60;;;;;;;7.95;86.04;101418.47;4981623;28;20224;-77
2022/12/03 03:42:40;;;;;;;26.95;20.00;;;;;;;7.87;85.83;101406.59;4981846;28;20061;-80
2022/12/03 03:45:08;;;;;;;28.45;20.10;;;;;;;6.97;85.27;101269.75;4980245;28;20124;-80
2022/12/03 03:47:36;;;;;;;24.27;20.23;;;;;;;7.77;85.93;101392.28;4981015;28;20066;-80
2022/12/03 03:50:03;;;;;;;28.90;20.80;;;;;;;7.90;85.65;101424.06;4979321;28;20081;-80
2022/12/03 03:52:30;;;;;;;28.35;20.13;;;;;;;7.86;86.33;101420.78;4981204;28;20057;-79
2022/12/03 03:54:57;;;;;;;27.30;21.88;;;;;;;7.80;86.63;101407.94;4980957;28;20362;-80
2022/12/03 03:57:23;;;;;;;25.80;20.27;;;;;;;7.52;86.31;101365.72;4979460;28;20085;-80
2022/12/03 03:59:50;;;;;;;31.17;21.60;;;;;;;7.84;85.37;101409.47;4980089;28;20133;-79
2022/12/03 04:02:23;;;;;;;39.67;22.02;;;;;;;7.91;85.94;101423.09;4980777;28;20309;-79
2022/12/03 04:04:54;;;;;;;31.00;21.55;;;;;;;7.23;84.96;101302.41;4980836;28;20160;-80
2022/12/03 04:07:23;;;;;;;25.90;20.95;;;;;;;7.74;85.19;101405.69;4980071;28;20335;-81
2022/12/03 04:09:50;;;;;;;28.88;22.15;;;;;;;7.71;85.60;101416.47;4980159;28;20088;-79
2022/12/03 04:15:06;;;;;;;37.53;23.75;;;;;;;7.44;85.92;101380.28;4984550;28;20145;-80
2022/12/03 04:17:33;;;;;;;32.53;22.45;;;;;;;7.61;86.61;101418.84;4979006;28;20050;-79
2022/12/03 04:20:00;;;;;;;32.97;23.70;;;;;;;7.37;86.69;101378.97;4981225;28;20164;-81
2022/12/03 04:22:38;;;;;;;35.47;23.25;;;;;;;7.36;86.81;101376.44;4979835;28;20064;-79
2022/12/03 04:30:39;;;;;;;32.15;22.15;;;;;;;7.45;87.03;101379.34;4981033;28;20046;-78
2022/12/03 04:35:54;;;;;;;31.13;23.08;;;;;;;7.56;87.31;101401.59;5000696;28;20055;-81
2022/12/03 04:38:21;;;;;;;33.67;23.15;;;;;;;7.66;86.83;101408.81;5001740;28;20120;-81
2022/12/03 04:41:00;;;;;;;31.00;23.48;;;;;;;7.52;87.38;101394.78;5000668;28;20060;-81
2022/12/03 04:43:27;;;;;;;29.17;22.85;;;;;;;7.43;87.32;101370.66;4999058;28;20485;-81
2022/12/03 04:45:57;;;;;;;31.52;22.98;;;;;;;7.49;87.09;101387.91;5004042;28;20373;-79
2022/12/03 04:48:26;;;;;;;;;;;;;;;7.56;87.30;101406.88;5015270;28;20267;-81
2022/12/03 04:50:56;;;;;;;31.45;21.70;;;;;;;7.45;87.84;101370.56;5021443;28;19925;-82
2022/12/03 04:53:23;;;;;;;31.58;23.48;;;;;;;7.55;87.45;101389.31;5024862;28;20049;-80
2022/12/03 04:55:49;;;;;;;33.60;23.73;;;;;;;7.60;87.29;101397.81;5004862;28;20049;-81
2022/12/03 04:58:16;;;;;;;30.98;22.67;;;;;;;7.43;87.50;101362.75;4989374;28;20347;-82
2022/12/03 05:00:48;;;;;;;30.50;23.23;;;;;;;6.89;87.57;101278.13;4974856;28;20243;-79
2022/12/03 05:03:14;;;;;;;30.00;22.90;;;;;;;7.36;88.07;101353.50;4958500;28;20227;-80
2022/12/03 05:05:43;;;;;;;29.17;22.75;;;;;;;7.53;87.61;101383.31;4974443;28;20054;-80
2022/12/03 05:08:10;;;;;;;29.73;22.73;;;;;;;7.59;87.61;101388.19;4962306;28;20081;-80
2022/12/03 05:10:37;;;;;;;29.77;22.02;;;;;;;7.54;88.05;101377.06;4978129;28;20058;-81
2022/12/03 05:13:03;;;;;;;33.83;23.58;;;;;;;7.55;87.73;101370.81;4982260;28;20058;-79
2022/12/03 05:15:30;;;;;;;32.95;23.40;;;;;;;7.60;87.92;101384.59;4994901;28;20396;-80
2022/12/03 05:17:57;;;;;;;33.13;24.40;;;;;;;7.39;87.13;101350.66;4979281;28;20058;-78
2022/12/03 05:20:42;;;;;;;35.63;24.40;;;;;;;7.55;87.64;101376.09;4979455;28;20064;-81
2022/12/03 05:23:23;;;;;;;34.42;23.63;;;;;;;7.43;87.70;101354.81;4979153;28;20519;-81
2022/12/03 05:25:55;;;;;;;37.78;23.98;;;;;;;7.62;87.43;101378.28;4980167;28;20786;-80
2022/12/03 05:28:23;;;;;;;40.67;25.80;;;;;;;6.70;86.72;101227.44;4978899;28;20050;-80
2022/12/03 05:30:52;;;;;;;38.08;25.85;;;;;;;7.23;87.04;101318.25;4978346;28;20045;-80
2022/12/03 05:33:19;;;;;;;36.17;24.05;;;;;;;7.51;86.88;101369.34;4994731;28;20057;-78
2022/12/03 05:35:52;;;;;;;34.28;23.85;;;;;;;7.49;86.91;101372.91;5000246;28;20140;-81
2022/12/03 05:38:19;;;;;;;35.97;24.58;;;;;;;7.48;87.64;101371.22;4993256;28;20065;-81
2022/12/03 05:40:46;;;;;;;31.85;23.50;;;;;;;7.19;87.86;101322.88;4977046;28;20598;-81
2022/12/03 05:43:16;;;;;;;36.63;23.95;;;;;;;6.94;88.06;101281.34;4977657;28;20371;-80
2022/12/03 05:45:43;;;;;;;33.25;23.75;;;;;;;6.97;87.46;101275.88;4978857;28;20038;-80
2022/12/03 05:48:19;;;;;;;33.03;23.42;;;;;;;6.04;87.43;101116.34;4977735;28;20050;-83
2022/12/03 05:50:45;;;;;;;34.25;24.95;;;;;;;6.84;86.43;101253.81;4981998;28;20059;-79
2022/12/03 05:53:17;;;;;;;36.13;24.35;;;;;;;7.29;87.38;101323.16;4985440;28;20487;-80
2022/12/03 05:55:44;;;;;;;33.47;24.27;;;;;;;7.37;87.18;101357.00;4985246;28;20057;-80
2022/12/03 05:58:20;;;;;;;32.75;24.23;;;;;;;7.57;87.03;101377.69;4984456;28;20057;-80
2022/12/03 06:00:47;;;;;;;35.03;24.75;;;;;;;7.16;87.71;101309.00;4979991;28;20451;-79
2022/12/03 06:03:16;;;;;;;36.63;25.25;;;;;;;7.34;87.46;101334.25;4980139;28;20065;-81
2022/12/03 06:05:43;;;;;;;35.45;24.38;;;;;;;7.62;86.99;101380.03;4980489;28;20057;-77
2022/12/03 06:08:09;;;;;;;41.58;26.60;;;;;;;7.47;86.54;101358.94;4995846;28;20375;-78
2022/12/03 06:10:36;;;;;;;39.58;24.60;;;;;;;7.56;87.12;101383.94;4993158;28;20053;-80
2022/12/03 06:13:03;;;;;;;34.60;25.20;;;;;;;7.33;87.05;101343.16;4995923;28;20263;-78
2022/12/03 06:15:30;;;;;;;37.30;25.00;;;;;;;7.17;86.65;101319.47;4993736;28;20053;-77
2022/12/03 06:18:08;;;;;;;40.22;25.52;;;;;;;7.39;86.88;101365.66;4994400;28;20252;-79
2022/12/03 06:20:38;;;;;;;44.42;26.98;;;;;;;7.47;87.48;101380.06;4995038;28;20045;-78
2022/12/03 06:23:05;;;;;;;33.85;24.25;;;;;;;7.51;87.43;101387.81;4991681;28;20427;-78
2022/12/03 06:25:33;;;;;;;34.65;25.05;;;;;;;7.21;86.90;101336.84;4992921;28;20050;-81
2022/12/03 06:28:01;;;;;;;37.00;24.30;;;;;;;7.40;87.38;101360.31;4984724;28;20458;-80
2022/12/03 06:30:28;;;;;;;39.22;25.67;;;;;;;7.42;87.26;101376.88;4978574;28;20517;-80
2022/12/03 06:32:55;;;;;;;36.55;24.95;;;;;;;7.26;87.80;101357.69;4978380;28;20144;-80
2022/12/03 06:35:23;;;;;;;35.35;24.40;;;;;;;7.28;87.78;101361.03;4963316;28;20398;-80
2022/12/03 06:37:54;;;;;;;35.03;23.73;;;;;;;7.31;88.61;101339.75;4977474;28;20050;-79
2022/12/03 06:40:23;;;;;;;32.08;22.88;;;;;;;7.42;87.64;101361.03;4981905;28;20054;-80
2022/12/03 06:42:52;;;;;;;34.70;23.20;;;;;;;6.92;87.81;101287.63;4982758;28;20065;-79
2022/12/03 06:45:19;;;;;;;37.33;23.30;;;;;;;6.79;87.78;101263.81;4981366;28;20064;-80
2022/12/03 06:47:46;;;;;;;32.25;23.77;;;;;;;7.25;87.81;101332.19;4981756;28;20045;-80
2022/12/03 06:50:13;;;;;;;30.55;23.63;;;;;;;7.63;88.06;101390.53;4981887;28;20137;-80
2022/12/03 06:52:39;;;;;;;31.85;23.67;;;;;;;7.50;87.84;101373.78;4985736;28;20571;-80
2022/12/03 06:55:07;;;;;;;37.60;25.20;;;;;;;7.52;87.37;101371.84;4980752;28;20057;-81
2022/12/03 06:57:33;;;;;;;36.10;25.52;;;;;;;7.67;87.35;101392.03;4980370;28;20210;-81
2022/12/03 07:00:02;;;;;;;41.45;27.98;;;;;;;7.62;87.42;101382.69;4984353;28;20338;-80
2022/12/03 07:02:29;;;;;;;41.03;27.50;;;;;;;7.45;87.94;101360.84;4981260;28;20352;-81
2022/12/03 07:04:56;;;;;;;36.28;25.17;;;;;;;7.62;87.81;101383.56;4983721;28;20120;-80
2022/12/03 07:07:23;;;;;;;44.22;28.90;;;;;;;7.62;87.81;101387.97;4980525;28;20491;-80
2022/12/03 07:09:54;;;;;;;39.97;27.50;;;;;;;7.60;87.90;101389.91;4980480;28;20374;-81
2022/12/03 07:12:21;;;;;;;36.22;26.13;;;;;;;7.59;87.80;101380.25;4980251;28;20321;-79
2022/12/03 07:14:48;;;;;;;38.65;26.92;;;;;;;7.55;88.38;101373.44;4980116;28;20192;-79
2022/12/03 07:17:15;;;;;;;41.72;27.33;;;;;;;7.29;88.78;101344.28;4981412;28;20308;-85
2022/12/03 07:19:42;;;;;;;40.65;28.20;;;;;;;7.52;89.27;101381.59;4982637;28;20432;-84
2022/12/03 07:22:09;;;;;;;41.40;28.23;;;;;;;7.51;89.22;101393.13;4983407;28;20065;-83
2022/12/03 07:24:36;;;;;;;40.85;27.05;;;;;;;7.15;89.62;101336.38;4978425;28;20058;-84
2022/12/03 07:27:02;;;;;;;37.38;26.73;;;;;;;7.47;89.74;101379.22;4981050;28;20050;-84
2022/12/03 07:29:29;;;;;;;39.10;27.95;;;;;;;7.51;90.34;101383.38;4980750;28;20058;-84
2022/12/03 07:31:56;;;;;;;37.72;25.38;;;;;;;7.51;90.13;101378.09;4981514;28;20060;-84
2022/12/03 07:34:26;;;;;;;38.30;24.65;;;;;;;7.37;89.84;101347.28;4978661;28;20171;-84
2022/12/03 07:36:53;;;;;;;33.42;24.00;;;;;;;7.60;89.48;101376.69;4981778;28;20054;-84
2022/12/03 07:39:19;;;;;;;34.17;23.38;;;;;;;7.65;89.28;101377.22;4984008;28;20053;-83
2022/12/03 07:41:46;;;;;;;32.35;21.98;;;;;;;7.21;89.50;101296.38;4983548;28;20063;-83
2022/12/03 07:44:13;;;;;;;29.58;22.15;;;;;;;6.17;88.62;101125.19;4978712;28;20184;-83
2022/12/03 07:46:41;;;;;;;29.33;21.27;;;;;;;6.71;89.38;101222.06;4981520;28;20804;-82
2022/12/03 07:49:11;;;;;;;29.77;21.95;;;;;;;7.46;89.19;101338.75;4983610;28;20053;-82
2022/12/03 07:51:38;;;;;;;27.63;20.42;;;;;;;7.66;89.08;101350.69;4979605;28;20058;-84
2022/12/03 07:54:05;;;;;;;29.80;20.67;;;;;;;7.57;88.73;101350.44;4977266;28;20594;-84
2022/12/03 07:56:31;;;;;;;27.00;20.25;;;;;;;7.71;88.55;101361.81;4980407;28;20054;-83
2022/12/03 07:58:58;;;;;;;33.13;22.45;;;;;;;7.06;88.44;101259.44;4984925;28;20521;-81
2022/12/03 08:01:25;;;;;;;27.40;20.50;;;;;;;7.31;88.83;101305.41;5000683;28;20053;-83
2022/12/03 08:03:52;;;;;;;26.85;19.25;;;;;;;6.98;88.75;101245.88;5015435;28;20045;-81
2022/12/03 08:06:18;;;;;;;25.10;18.83;;;;;;;7.01;88.63;101243.03;5015455;28;20077;-83
2022/12/03 08:08:57;;;;;;;27.40;19.50;;;;;;;7.75;88.45;101373.03;4998934;28;20133;-82
2022/12/03 08:11:27;;;;;;;28.77;20.73;;;;;;;7.00;88.47;101259.81;5018948;28;20050;-82
2022/12/03 08:13:58;;;;;;;28.95;21.25;;;;;;;7.25;88.75;101289.94;5002799;28;20503;-81
2022/12/03 08:16:25;;;;;;;33.45;21.60;;;;;;;7.82;88.84;101376.97;5004213;28;20041;-83
2022/12/03 08:18:56;;;;;;;32.65;22.60;;;;;;;7.03;88.53;101254.34;5021482;28;20164;-82
2022/12/03 08:21:23;;;;;;;32.15;22.90;;;;;;;7.83;88.92;101376.03;5003713;28;20057;-83
2022/12/03 08:23:49;;;;;;;33.28;22.63;;;;;;;7.82;88.45;101361.13;4981990;28;20053;-84
2022/12/03 08:26:22;;;;;;;33.10;22.02;;;;;;;7.77;88.55;101360.56;5000227;28;20057;-84
2022/12/03 08:28:50;;;;;;;32.70;23.67;;;;;;;7.91;88.11;101373.75;4984114;28;20568;-82
2022/12/03 08:31:22;;;;;;;32.08;22.35;;;;;;;7.39;87.90;101302.28;4982217;28;20649;-85
2022/12/03 08:34:14;;;;;;;38.08;22.70;;;;;;;7.86;89.18;101382.91;4992414;28;20053;-83
2022/12/03 08:36:41;;;;;;;33.85;22.75;;;;;;;6.83;89.11;101204.63;4984357;28;20053;-85
2022/12/03 08:39:28;;;;;;;30.05;21.48;;;;;;;8.00;89.11;101389.94;4992977;28;20563;-84
2022/12/03 08:44:46;;;;;;;32.65;20.58;;;;;;;7.96;87.83;101397.25;4980076;28;20132;-84
2022/12/03 08:47:25;;;;;;;31.92;21.63;;;;;;;7.62;87.30;101337.75;4962198;28;20541;-83
2022/12/03 08:50:00;;;;;;;33.80;20.92;;;;;;;7.78;87.78;101351.69;4965896;28;20093;-84
2022/12/03 08:52:31;;;;;;;34.38;20.92;;;;;;;8.10;87.58;101394.50;4962678;28;20773;-83
2022/12/03 08:54:59;;;;;;;30.10;21.25;;;;;;;8.15;86.68;101396.84;4965762;28;20049;-84
2022/12/03 08:57:33;;;;;;;39.63;22.35;;;;;;;8.03;86.36;101382.63;4961936;28;20080;-84
2022/12/03 09:00:17;;;;;;;30.83;20.25;;;;;;;8.01;87.14;101395.16;4962161;28;20049;-85
2022/12/03 09:02:48;;;;;;;34.08;23.45;;;;;;;8.06;86.57;101392.19;4973070;28;20121;-83
2022/12/03 09:05:31;;;;;;;32.65;23.08;;;;;;;7.99;86.58;101381.16;4979504;28;20071;-83
2022/12/03 09:07:58;;;;;;;33.83;23.83;;;;;;;8.11;86.68;101396.22;4979597;28;20489;-82
2022/12/03 09:10:25;;;;;;;36.88;24.35;;;;;;;8.00;87.50;101389.94;4978745;28;20089;-82
2022/12/03 09:12:52;;;;;;;35.53;23.45;;;;;;;8.08;87.60;101400.84;4975477;28;20148;-83
2022/12/03 09:15:19;;;;;;;31.15;20.83;;;;;;;8.03;87.21;101384.44;4979385;28;20104;-83
2022/12/03 09:17:45;;;;;;;30.05;20.35;;;;;;;7.48;86.48;101294.59;4981586;28;20053;-83
2022/12/03 09:20:12;;;;;;;30.60;21.15;;;;;;;7.90;86.32;101366.75;4980861;28;20050;-84
2022/12/03 09:22:39;;;;;;;29.00;20.88;;;;;;;8.02;86.12;101380.13;4977507;28;20054;-82
2022/12/03 09:25:07;;;;;;;27.70;19.60;;;;;;;7.79;85.69;101332.25;4977546;28;20050;-83
2022/12/03 09:27:34;;;;;;;30.42;20.63;;;;;;;7.33;85.93;101263.91;4979218;28;20506;-82
2022/12/03 09:30:01;;;;;;;29.27;19.60;;;;;;;7.73;86.00;101332.63;4979082;28;20487;-83
2022/12/03 09:32:29;;;;;;;29.20;20.52;;;;;;;8.01;85.69;101378.41;4984723;28;20550;-83
2022/12/03 09:34:56;;;;;;;26.85;19.50;;;;;;;8.19;85.45;101408.94;4997267;28;20049;-82
2022/12/03 09:37:24;;;;;;;31.75;20.40;;;;;;;8.09;86.08;101395.47;4996382;28;20569;-82
2022/12/03 09:39:51;;;;;;;28.88;20.52;;;;;;;8.09;86.16;101381.41;4978476;28;20553;-83
2022/12/03 09:42:20;;;;;;;28.88;20.75;;;;;;;8.17;86.39;101394.13;4976449;28;20057;-84
2022/12/03 09:44:47;;;;;;;24.38;18.33;;;;;;;8.24;86.36;101395.41;4960784;28;20659;-83
2022/12/03 09:47:14;;;;;;;27.80;19.10;;;;;;;8.17;86.24;101379.09;4980699;28;20145;-83
2022/12/03 09:49:41;;;;;;;26.55;19.45;;;;;;;8.26;86.00;101402.28;4991432;28;20492;-82
2022/12/03 09:52:15;;;;;;;27.70;20.15;;;;;;;7.90;86.45;101345.59;4980216;28;20067;-82
2022/12/03 09:54:42;;;;;;;35.35;21.75;;;;;;;8.06;85.49;101360.47;4975779;28;20049;-81
2022/12/03 09:57:18;;;;;;;31.38;21.95;;;;;;;7.97;86.53;101355.78;4978469;28;20188;-83
2022/12/03 09:59:49;;;;;;;30.70;21.90;;;;;;;7.94;85.94;101335.69;4957547;28;20157;-81
2022/12/03 10:02:27;;;;;;;28.73;20.55;;;;;;;8.17;86.01;101371.16;4959705;28;20233;-81
2022/12/03 10:04:55;;;;;;;32.80;21.67;;;;;;;8.26;86.20;101386.41;4958195;28;20054;-81
2022/12/03 10:07:24;;;;;;;32.55;23.27;;;;;;;8.13;85.97;101351.16;4960209;28;20113;-80
2022/12/03 10:09:51;;;;;;;36.08;23.33;;;;;;;8.25;86.25;101366.22;4997369;28;20056;-81
2022/12/03 10:12:23;;;;;;;36.53;22.73;;;;;;;8.12;86.22;101344.16;4983774;28;20057;-80
2022/12/03 10:14:51;;;;;;;35.10;22.77;;;;;;;7.68;85.98;101266.03;5001438;28;20046;-80
2022/12/03 10:17:18;;;;;;;37.45;24.42;;;;;;;8.33;85.98;101377.13;4999223;28;20887;-79
2022/12/03 10:19:47;;;;;;;37.28;26.00;;;;;;;8.15;85.33;101357.19;5002327;28;20056;-80
2022/12/03 10:22:23;;;;;;;38.88;26.63;;;;;;;8.09;85.43;101339.94;4999394;28;20050;-80
2022/12/03 10:25:22;;;;;;;39.25;25.70;;;;;;;8.08;85.29;101337.38;4998119;28;20064;-78
2022/12/03 10:27:59;;;;;;;35.97;24.17;;;;;;;8.33;85.65;101369.19;4965736;28;20049;-80
2022/12/03 10:30:27;;;;;;;39.58;25.83;;;;;;;8.30;84.84;101350.88;4981341;28;20160;-79
2022/12/03 10:32:57;;;;;;;41.63;26.85;;;;;;;8.37;84.42;101355.75;4992589;28;20048;-80
2022/12/03 10:35:42;;;;;;;46.20;28.45;;;;;;;8.14;84.43;101331.69;4999265;28;20574;-80
2022/12/03 10:38:16;;;;;;;41.13;27.27;;;;;;;8.29;84.98;101343.03;4980125;28;20179;-79
2022/12/03 10:40:44;;;;;;;42.38;28.08;;;;;;;8.13;84.95;101311.47;4977853;28;20056;-80
2022/12/03 10:43:18;;;;;;;44.97;27.25;;;;;;;8.21;84.63;101327.69;4979458;28;20076;-79
2022/12/03 10:46:09;;;;;;;45.03;29.23;;;;;;;8.38;84.50;101349.53;4979878;28;20053;-81
2022/12/03 10:48:39;;;;;;;47.17;27.98;;;;;;;8.23;84.21;101320.50;4981341;28;20144;-80
2022/12/03 10:51:22;;;;;;;49.05;29.52;;;;;;;7.66;84.77;101238.84;4979607;28;20045;-79
2022/12/03 10:53:51;;;;;;;50.78;30.55;;;;;;;7.87;86.15;101277.06;4981781;28;20144;-80
2022/12/03 10:56:28;;;;;;;48.35;30.15;;;;;;;8.26;86.00;101346.75;4980944;28;20395;-79
2022/12/03 10:58:55;;;;;;;52.72;31.15;;;;;;;8.30;85.45;101348.25;4995114;28;20049;-78
2022/12/03 11:01:24;;;;;;;50.90;28.98;;;;;;;8.41;85.07;101336.09;4994738;28;20152;-84
2022/12/03 11:03:55;;;;;;;51.45;31.88;;;;;;;8.36;84.45;101336.38;4998933;28;20568;-81
2022/12/03 11:06:31;;;;;;;51.95;31.58;;;;;;;8.33;85.84;101342.75;5002758;28;20507;-82
2022/12/03 11:09:00;;;;;;;44.80;28.45;;;;;;;8.41;85.19;101336.94;4996771;28;20835;-82
2022/12/03 11:11:34;;;;;;;48.50;30.20;;;;;;;8.25;85.11;101323.91;5002177;28;20072;-81
2022/12/03 11:14:05;;;;;;;55.58;29.60;;;;;;;7.87;85.77;101263.84;4985472;28;20140;-83
2022/12/03 11:16:38;;;;;;;48.90;28.45;;;;;;;8.26;86.25;101328.22;4982960;28;20064;-81
2022/12/03 11:19:11;;;;;;;48.70;28.55;;;;;;;8.30;86.38;101320.91;4983228;28;20578;-82
2022/12/03 11:22:05;;;;;;;48.85;29.00;;;;;;;8.29;86.38;101309.50;4984437;28;20060;-83
2022/12/03 11:24:35;;;;;;;45.30;27.52;;;;;;;7.74;86.21;101223.31;4983766;28;20050;-84
2022/12/03 11:27:02;;;;;;;41.60;26.88;;;;;;;8.20;86.41;101312.75;4964662;28;20108;-83
2022/12/03 11:29:49;;;;;;;43.03;27.17;;;;;;;8.28;86.81;101318.41;5000494;28;20142;-84
2022/12/03 11:32:37;;;;;;;47.08;28.77;;;;;;;8.30;87.11;101319.13;5002919;28;20148;-85
2022/12/03 11:35:23;;;;;;;44.22;27.30;;;;;;;8.30;87.37;101324.44;5001659;28;20045;-84
2022/12/03 11:37:53;;;;;;;46.60;27.30;;;;;;;7.79;87.11;101236.22;5003584;28;20106;-85
2022/12/03 11:40:20;;;;;;;41.83;25.70;;;;;;;8.34;87.16;101319.75;4997752;28;20052;-85
2022/12/03 11:42:48;;;;;;;48.10;26.25;;;;;;;7.77;87.40;101230.19;4985479;28;20843;-84
2022/12/03 11:45:21;;;;;;;39.28;25.23;;;;;;;7.66;87.59;101212.41;4985178;28;20505;-83
2022/12/03 11:48:14;;;;;;;40.53;24.80;;;;;;;8.38;86.72;101307.19;5002977;28;20416;-85